Time;durP1;ratioP1;P1;durP2;ratioP2;P2;SDS_P1;SDS_P2;PMS_P1;PMS_P2;Temp;Humidity;BMP_temperature;BMP_pressure;BME280_temperature;BME280_humidity;BME280_pressure;Samples;Min_cycle;Max_cycle;Signal;HPM_P1;HPM_P2
2021/12/09 00:01:33;;;;;;;23.98;9.43;;;;;;;1.67;100.00;99846.25;5095155;28;20487;-50
2021/12/09 00:04:02;;;;;;;29.80;9.63;;;;;;;2.02;100.00;99923.66;5094986;28;20032;-49
2021/12/09 00:06:30;;;;;;;24.50;10.85;;;;;;;1.60;100.00;99851.53;5095310;28;20071;-52
2021/12/09 00:08:58;;;;;;;27.15;10.82;;;;;;;1.98;100.00;99921.13;5095013;28;20024;-52
2021/12/09 00:11:24;;;;;;;21.40;9.90;;;;;;;1.91;100.00;99909.09;5076511;28;20032;-50
2021/12/09 00:13:50;;;;;;;24.67;11.18;;;;;;;1.99;100.00;99923.69;5092870;28;20438;-50
2021/12/09 00:16:15;;;;;;;23.60;10.20;;;;;;;1.96;100.00;99923.72;5074377;28;20028;-52
2021/12/09 00:18:43;;;;;;;30.63;10.25;;;;;;;1.91;100.00;99935.91;5093281;28;20424;-52
2021/12/09 00:21:10;;;;;;;28.58;10.95;;;;;;;1.94;100.00;99935.00;5094922;28;20084;-51
2021/12/09 00:23:35;;;;;;;28.05;10.93;;;;;;;1.59;100.00;99878.34;5094749;28;20035;-49
2021/12/09 00:26:01;;;;;;;29.63;11.20;;;;;;;1.85;100.00;99929.91;5094718;28;20032;-49
2021/12/09 00:28:26;;;;;;;26.55;11.32;;;;;;;1.42;100.00;99855.19;5094624;28;20075;-48
2021/12/09 00:30:52;;;;;;;29.63;11.25;;;;;;;1.83;100.00;99929.94;5094116;28;20194;-50
2021/12/09 00:33:18;;;;;;;35.65;12.18;;;;;;;1.83;100.00;99934.28;5076734;28;20047;-51
2021/12/09 00:35:48;;;;;;;36.40;12.50;;;;;;;1.36;100.00;99860.44;5076552;28;20043;-50
2021/12/09 00:38:21;;;;;;;28.02;11.32;;;;;;;1.78;100.00;99933.47;5094188;28;20110;-49
2021/12/09 00:40:48;;;;;;;37.72;12.10;;;;;;;1.75;100.00;99933.50;5094309;28;20043;-52
2021/12/09 00:43:15;;;;;;;28.38;12.63;;;;;;;1.37;100.00;99874.28;5094343;28;20035;-52
2021/12/09 00:45:41;;;;;;;32.50;12.23;;;;;;;1.62;100.00;99920.66;5094170;28;20024;-54
2021/12/09 00:48:06;;;;;;;34.13;12.88;;;;;;;1.62;100.00;99927.59;5094531;28;20047;-52
2021/12/09 00:50:32;;;;;;;32.47;11.88;;;;;;;1.22;100.00;99857.16;5094321;28;20036;-51
2021/12/09 00:52:57;;;;;;;29.17;12.57;;;;;;;1.21;100.00;99854.56;5094412;28;20455;-54
2021/12/09 00:55:22;;;;;;;31.00;12.23;;;;;;;1.34;100.00;99880.34;5094058;28;20399;-53
2021/12/09 00:57:48;;;;;;;33.22;12.40;;;;;;;1.63;100.00;99939.69;5094037;28;20032;-52
2021/12/09 01:00:17;;;;;;;30.02;12.57;;;;;;;1.20;100.00;99853.69;5093955;28;20071;-51
2021/12/09 01:02:42;;;;;;;28.67;13.82;;;;;;;1.54;100.00;99913.84;5094258;28;20119;-51
2021/12/09 01:05:09;;;;;;;29.75;13.45;;;;;;;1.23;100.00;99856.25;5076014;28;20059;-54
2021/12/09 01:07:35;;;;;;;30.27;12.45;;;;;;;1.59;100.00;99918.09;5093967;28;20520;-49
2021/12/09 01:10:01;;;;;;;26.55;11.48;;;;;;;1.62;100.00;99914.63;5093804;28;20296;-54
2021/12/09 01:12:27;;;;;;;38.40;10.93;;;;;;;1.85;100.00;99919.53;5093978;28;20043;-59
2021/12/09 01:14:52;;;;;;;28.85;10.35;;;;;;;1.49;100.00;99859.41;5093739;28;20028;-49
2021/12/09 01:17:18;;;;;;;27.38;10.90;;;;;;;1.48;100.00;99846.47;5094029;28;20036;-51
2021/12/09 01:19:43;;;;;;;33.70;10.75;;;;;;;1.81;100.00;99899.72;5075357;28;20101;-50
2021/12/09 01:22:09;;;;;;;34.72;10.00;;;;;;;2.01;100.00;99923.69;5093685;28;20024;-49
2021/12/09 01:24:35;;;;;;;27.00;10.45;;;;;;;1.79;100.00;99881.53;5075628;28;20036;-53
2021/12/09 01:27:01;;;;;;;31.02;10.50;;;;;;;1.80;100.00;99879.81;5059046;28;20457;-52
2021/12/09 01:29:34;;;;;;;29.33;9.05;;;;;;;2.11;100.00;99933.91;5075074;28;20124;-51
2021/12/09 01:32:03;;;;;;;34.15;10.73;;;;;;;2.06;100.00;99927.94;5093671;28;20040;-53
2021/12/09 01:34:29;;;;;;;32.00;9.02;;;;;;;2.01;100.00;99939.25;5093271;28;20534;-53
2021/12/09 01:36:54;;;;;;;32.10;9.30;;;;;;;1.54;100.00;99855.06;5075172;28;20124;-51
2021/12/09 01:39:21;;;;;;;27.67;9.93;;;;;;;1.94;100.00;99933.28;5093316;28;20047;-54
2021/12/09 01:41:46;;;;;;;29.08;9.38;;;;;;;1.16;100.00;99807.97;5093255;28;20395;-51
2021/12/09 01:44:12;;;;;;;24.88;8.77;;;;;;;1.69;100.00;99908.50;5093468;28;20040;-54
2021/12/09 01:46:38;;;;;;;31.08;9.55;;;;;;;1.77;100.00;99934.34;5093061;28;20024;-51
2021/12/09 01:49:04;;;;;;;30.40;8.98;;;;;;;1.72;100.00;99920.56;5075086;28;20372;-52
2021/12/09 01:51:29;;;;;;;23.52;8.25;;;;;;;1.75;100.00;99934.38;5092307;28;20105;-53
2021/12/09 01:53:54;;;;;;;22.85;8.88;;;;;;;1.67;100.00;99926.66;5093096;28;20028;-52
2021/12/09 01:56:23;;;;;;;32.95;8.40;;;;;;;1.26;100.00;99856.22;5058256;28;20050;-53
2021/12/09 01:58:57;;;;;;;23.35;8.93;;;;;;;1.75;100.00;99949.06;5093163;28;20032;-50
2021/12/09 02:01:23;;;;;;;24.27;8.95;;;;;;;1.75;100.00;99955.13;5092968;28;20028;-55
2021/12/09 02:03:49;;;;;;;33.05;9.95;;;;;;;1.73;100.00;99953.41;5093026;28;20032;-53
2021/12/09 02:06:15;;;;;;;27.58;10.65;;;;;;;1.68;100.00;99945.69;5074630;28;20032;-51
2021/12/09 02:08:40;;;;;;;37.50;11.02;;;;;;;1.46;100.00;99910.47;5074520;28;20522;-51
2021/12/09 02:11:06;;;;;;;27.30;10.90;;;;;;;1.33;100.00;99903.69;5074741;28;20032;-53
2021/12/09 02:13:31;;;;;;;29.27;11.60;;;;;;;1.50;100.00;99943.25;5092892;28;20046;-52
2021/12/09 02:15:57;;;;;;;40.30;12.95;;;;;;;1.31;100.00;99921.00;5074780;28;20460;-52
2021/12/09 02:18:23;;;;;;;30.50;12.57;;;;;;;1.09;100.00;99887.50;5058028;28;20031;-53
2021/12/09 02:21:08;;;;;;;31.05;12.30;;;;;;;1.39;100.00;99947.72;5092619;28;20089;-54
2021/12/09 02:23:36;;;;;;;29.88;12.18;;;;;;;1.19;100.00;99910.75;5092376;28;20032;-50
2021/12/09 02:26:02;;;;;;;29.77;11.23;;;;;;;1.31;100.00;99929.66;5074798;28;20032;-50
2021/12/09 02:28:27;;;;;;;29.98;11.10;;;;;;;1.08;100.00;99885.78;5092475;28;20036;-52
2021/12/09 02:30:53;;;;;;;22.23;10.13;;;;;;;1.26;100.00;99914.97;5092183;28;20394;-54
2021/12/09 02:33:19;;;;;;;27.77;9.95;;;;;;;1.08;100.00;99882.34;5074440;28;20068;-49
2021/12/09 02:35:44;;;;;;;20.55;9.38;;;;;;;1.50;100.00;99940.69;5074323;28;20035;-53
2021/12/09 02:38:09;;;;;;;34.90;10.57;;;;;;;1.52;100.00;99939.78;5092101;28;20032;-52
2021/12/09 02:40:36;;;;;;;22.48;9.98;;;;;;;1.31;100.00;99884.72;5074469;28;20119;-53
2021/12/09 02:43:04;;;;;;;28.17;9.32;;;;;;;1.74;100.00;99955.13;5092654;28;20047;-51
2021/12/09 02:45:30;;;;;;;26.52;9.20;;;;;;;1.74;100.00;99948.22;5074429;28;20028;-52
2021/12/09 02:47:55;;;;;;;27.42;10.20;;;;;;;1.38;100.00;99874.25;5092427;28;20032;-50
2021/12/09 02:50:20;;;;;;;27.85;9.90;;;;;;;1.38;100.00;99875.97;5092144;28;20044;-53
2021/12/09 02:52:47;;;;;;;26.52;9.90;;;;;;;1.58;100.00;99908.59;5092152;28;20415;-50
2021/12/09 02:55:13;;;;;;;32.33;11.18;;;;;;;1.39;100.00;99868.19;5092483;28;20070;-53
2021/12/09 02:57:38;;;;;;;24.55;9.88;;;;;;;1.67;100.00;99925.78;5057484;28;20082;-53
2021/12/09 03:00:06;;;;;;;26.70;9.82;;;;;;;1.39;100.00;99878.56;5092331;28;20119;-51
2021/12/09 03:02:32;;;;;;;34.10;11.10;;;;;;;1.80;100.00;99936.91;5094402;28;20191;-51
2021/12/09 03:05:02;;;;;;;27.27;9.52;;;;;;;1.39;100.00;99865.59;5096501;28;20385;-50
2021/12/09 03:07:33;;;;;;;33.08;11.25;;;;;;;1.41;100.00;99876.81;5096266;28;20031;-50
2021/12/09 03:10:10;;;;;;;29.88;10.25;;;;;;;1.67;100.00;99921.47;5096598;28;20073;-55
2021/12/09 03:12:39;;;;;;;32.28;10.00;;;;;;;1.69;100.00;99930.09;5096296;28;20107;-51
2021/12/09 03:15:06;;;;;;;35.53;11.57;;;;;;;1.69;100.00;99935.28;5096111;28;20038;-50
2021/12/09 03:17:32;;;;;;;28.90;9.50;;;;;;;1.70;100.00;99949.09;5095795;28;20036;-52
2021/12/09 03:19:58;;;;;;;32.17;10.35;;;;;;;1.35;100.00;99900.19;5096194;28;20043;-50
2021/12/09 03:22:23;;;;;;;32.20;11.40;;;;;;;1.24;100.00;99896.00;5096177;28;20040;-53
2021/12/09 03:24:49;;;;;;;30.95;11.65;;;;;;;1.47;100.00;99943.28;5077807;28;20063;-52
2021/12/09 03:27:14;;;;;;;33.85;12.88;;;;;;;1.34;100.00;99927.03;5095914;28;20498;-54
2021/12/09 03:29:40;;;;;;;31.15;11.95;;;;;;;1.08;100.00;99884.94;5095642;28;20074;-51
2021/12/09 03:32:09;;;;;;;28.05;12.20;;;;;;;1.31;100.00;99924.47;5095956;28;20089;-53
2021/12/09 03:34:36;;;;;;;30.02;12.55;;;;;;;1.36;100.00;99951.19;5095756;28;20036;-54
2021/12/09 03:37:04;;;;;;;25.58;11.95;;;;;;;1.34;100.00;99952.09;5095749;28;20036;-52
2021/12/09 03:39:32;;;;;;;31.40;11.50;;;;;;;1.24;100.00;99921.91;5095683;28;20406;-52
2021/12/09 03:41:58;;;;;;;35.10;12.00;;;;;;;1.35;100.00;99922.66;5095651;28;20024;-51
2021/12/09 03:44:24;;;;;;;36.78;12.05;;;;;;;1.21;100.00;99896.03;5077292;28;20467;-53
2021/12/09 03:46:52;;;;;;;32.30;11.55;;;;;;;1.59;100.00;99957.00;5095518;28;20039;-52
2021/12/09 03:49:18;;;;;;;31.15;11.05;;;;;;;1.53;100.00;99930.28;5095558;28;20039;-49
2021/12/09 03:51:43;;;;;;;30.38;11.60;;;;;;;1.55;100.00;99957.03;5095614;28;20044;-52
2021/12/09 03:54:10;;;;;;;31.05;10.85;;;;;;;1.60;100.00;99963.06;5095356;28;20040;-52
2021/12/09 03:56:36;;;;;;;26.73;10.98;;;;;;;1.59;100.00;99957.00;5077224;28;20500;-57
2021/12/09 03:59:04;;;;;;;32.17;11.13;;;;;;;1.49;100.00;99938.97;5076819;28;20039;-52
2021/12/09 04:01:29;;;;;;;37.72;11.40;;;;;;;1.61;100.00;99957.84;5094558;28;20027;-50
2021/12/09 04:03:55;;;;;;;37.55;11.40;;;;;;;1.26;100.00;99902.88;5095320;28;20040;-52
2021/12/09 04:06:21;;;;;;;28.95;9.63;;;;;;;1.55;100.00;99963.09;5095296;28;20048;-54
2021/12/09 04:08:48;;;;;;;36.08;11.65;;;;;;;1.56;100.00;99954.44;5095009;28;20460;-52
2021/12/09 04:11:15;;;;;;;33.85;12.13;;;;;;;1.57;100.00;99963.97;5094999;28;20062;-52
2021/12/09 04:13:41;;;;;;;38.92;11.15;;;;;;;1.56;100.00;99957.03;5094087;28;20070;-51
2021/12/09 04:16:09;;;;;;;33.88;11.10;;;;;;;1.58;100.00;99964.78;5076535;28;20391;-55
2021/12/09 04:18:37;;;;;;;32.90;10.70;;;;;;;1.57;100.00;99963.09;5094929;28;20107;-53
2021/12/09 04:21:03;;;;;;;36.50;11.43;;;;;;;1.55;100.00;99963.09;5076886;28;20024;-53
2021/12/09 04:23:29;;;;;;;26.92;9.98;;;;;;;1.14;100.00;99901.25;5094685;28;20077;-54
2021/12/09 04:25:56;;;;;;;31.00;9.90;;;;;;;1.25;100.00;99921.91;5076668;28;20032;-52
2021/12/09 04:28:22;;;;;;;31.58;9.25;;;;;;;1.13;100.00;99891.78;5094475;28;20040;-51
2021/12/09 04:30:47;;;;;;;28.45;8.55;;;;;;;0.87;100.00;99857.50;5094255;28;20044;-50
2021/12/09 04:33:12;;;;;;;32.47;9.73;;;;;;;1.50;100.00;99949.31;5094471;28;20040;-52
2021/12/09 04:35:38;;;;;;;36.13;9.77;;;;;;;1.08;100.00;99888.38;5076570;28;20378;-54
2021/12/09 04:38:03;;;;;;;30.45;10.07;;;;;;;1.43;100.00;99952.84;5059911;28;20036;-53
2021/12/09 04:40:29;;;;;;;34.83;9.20;;;;;;;1.42;100.00;99956.31;5094484;28;20036;-54
2021/12/09 04:42:54;;;;;;;32.35;9.38;;;;;;;1.47;100.00;99969.22;5076370;28;20508;-51
2021/12/09 04:45:20;;;;;;;31.52;9.23;;;;;;;1.55;100.00;99977.78;5094157;28;20103;-51
2021/12/09 04:47:45;;;;;;;34.75;9.30;;;;;;;1.56;100.00;99972.59;5076498;28;20032;-51
2021/12/09 04:50:11;;;;;;;27.50;9.02;;;;;;;1.35;100.00;99944.28;5094234;28;20035;-52
2021/12/09 04:52:37;;;;;;;28.30;9.32;;;;;;;1.58;100.00;99989.00;5094295;28;20115;-51
2021/12/09 04:55:07;;;;;;;29.35;9.25;;;;;;;1.49;100.00;99957.97;5075978;28;20040;-51
2021/12/09 04:57:33;;;;;;;27.63;8.10;;;;;;;0.90;100.00;99859.19;5076657;28;20040;-52
2021/12/09 04:59:58;;;;;;;34.47;7.93;;;;;;;1.62;100.00;99980.31;5094030;28;20032;-55
2021/12/09 05:03:24;;;;;;;31.42;8.32;;;;;;;1.69;100.00;99994.94;5075977;28;20516;-54
2021/12/09 05:05:18;;;;;;;24.50;8.48;;;;;;;1.73;100.00;100000.97;5080227;28;20048;-53
2021/12/09 05:07:44;;;;;;;27.05;7.88;;;;;;;1.63;100.00;99983.78;5093862;28;20368;-49
2021/12/09 05:10:10;;;;;;;31.67;8.23;;;;;;;1.57;100.00;99978.66;5093735;28;20065;-54
2021/12/09 05:12:35;;;;;;;30.92;7.15;;;;;;;1.19;100.00;99921.09;5094111;28;20085;-49
2021/12/09 05:15:00;;;;;;;29.13;7.18;;;;;;;1.57;100.00;99996.81;5075785;28;20032;-52
2021/12/09 05:17:26;;;;;;;31.52;7.43;;;;;;;1.62;100.00;100010.59;5093869;28;20093;-53
2021/12/09 05:19:51;;;;;;;26.98;7.50;;;;;;;1.64;100.00;99994.13;5075776;28;20399;-53
2021/12/09 05:22:17;;;;;;;27.30;7.68;;;;;;;1.31;100.00;99934.81;5075715;28;20063;-51
2021/12/09 05:24:44;;;;;;;27.75;7.10;;;;;;;1.60;100.00;99971.72;5075372;28;20561;-53
2021/12/09 05:27:12;;;;;;;26.40;6.93;;;;;;;1.49;100.00;99950.19;5075528;28;20046;-50
2021/12/09 05:29:43;;;;;;;26.13;5.60;;;;;;;1.81;100.00;100000.91;5075688;28;20067;-54
2021/12/09 05:32:11;;;;;;;27.75;6.95;;;;;;;1.81;100.00;100006.09;5093312;28;20537;-50
2021/12/09 05:34:42;;;;;;;23.75;7.05;;;;;;;1.42;100.00;99934.72;5093574;28;20027;-51
2021/12/09 05:37:09;;;;;;;;;;;;;;;1.75;100.00;100004.41;5093675;28;20043;-51
2021/12/09 05:39:36;;;;;;;25.40;7.95;;;;;;;1.39;100.00;99935.59;5093276;28;19916;-51
2021/12/09 05:42:03;;;;;;;24.02;6.85;;;;;;;1.79;100.00;100019.06;5058745;28;20035;-51
2021/12/09 05:44:29;;;;;;;30.02;6.95;;;;;;;1.80;100.00;99993.97;5093402;28;20387;-51
2021/12/09 05:46:55;;;;;;;19.35;5.60;;;;;;;1.30;100.00;99907.16;5075085;28;20035;-52
2021/12/09 05:49:20;;;;;;;24.98;6.47;;;;;;;1.75;100.00;99990.59;5074965;28;20058;-49
2021/12/09 05:51:46;;;;;;;23.27;7.70;;;;;;;1.81;100.00;100003.50;5093055;28;20472;-51
2021/12/09 05:54:12;;;;;;;25.15;7.05;;;;;;;1.12;100.00;99882.28;5075155;28;20032;-53
2021/12/09 05:56:38;;;;;;;24.92;7.70;;;;;;;1.87;100.00;100006.03;5075269;28;20028;-51
2021/12/09 05:59:04;;;;;;;24.42;7.55;;;;;;;1.85;100.00;100010.34;5093297;28;20071;-51
2021/12/09 06:01:29;;;;;;;23.77;7.07;;;;;;;1.86;100.00;100007.75;5092946;28;20479;-51
2021/12/09 06:03:55;;;;;;;29.88;6.63;;;;;;;1.56;100.00;99969.16;5074870;28;20036;-49
2021/12/09 06:06:20;;;;;;;23.20;7.32;;;;;;;1.82;100.00;100008.66;5092868;28;20472;-51
2021/12/09 06:08:46;;;;;;;20.38;6.53;;;;;;;1.61;100.00;99969.94;5074428;28;20437;-50
2021/12/09 06:11:12;;;;;;;23.23;6.32;;;;;;;1.94;100.00;100013.72;5074884;28;20039;-55
2021/12/09 06:13:39;;;;;;;20.50;7.18;;;;;;;1.96;100.00;100013.69;5092887;28;20032;-52
2021/12/09 06:16:06;;;;;;;33.10;6.78;;;;;;;1.94;100.00;100005.06;5074864;28;20093;-54
2021/12/09 06:18:31;;;;;;;28.15;7.70;;;;;;;1.63;100.00;99965.63;5058153;28;20090;-56
2021/12/09 06:20:57;;;;;;;28.42;6.68;;;;;;;1.98;100.00;100024.94;5092519;28;20486;-49
2021/12/09 06:23:22;;;;;;;21.25;7.15;;;;;;;1.97;100.00;100031.00;5092558;28;20042;-54
2021/12/09 06:25:49;;;;;;;29.65;7.10;;;;;;;1.91;100.00;100023.25;5092583;28;20483;-50
2021/12/09 06:28:15;;;;;;;26.17;6.80;;;;;;;1.75;100.00;100009.59;5092659;28;20036;-52
2021/12/09 06:30:41;;;;;;;26.63;6.70;;;;;;;1.77;100.00;100014.75;5092138;28;20066;-49
2021/12/09 06:33:06;;;;;;;25.52;7.28;;;;;;;1.83;100.00;100017.31;5077800;28;20495;-49
2021/12/09 06:35:33;;;;;;;28.05;7.63;;;;;;;1.86;100.00;100020.72;5072888;28;20483;-53
2021/12/09 06:38:00;;;;;;;28.13;7.88;;;;;;;1.62;100.00;99969.94;5062232;28;20032;-51
2021/12/09 06:40:25;;;;;;;28.70;7.25;;;;;;;1.45;100.00;99932.94;5072378;28;20407;-51
2021/12/09 06:42:52;;;;;;;24.27;7.40;;;;;;;1.53;100.00;99961.41;5087552;28;20502;-49
2021/12/09 06:45:19;;;;;;;24.27;7.45;;;;;;;1.44;100.00;99953.69;5074398;28;20032;-50
2021/12/09 06:47:45;;;;;;;26.08;7.75;;;;;;;1.80;100.00;100020.78;5082440;28;20079;-54
2021/12/09 06:50:13;;;;;;;24.10;7.70;;;;;;;1.44;100.00;99958.88;5087169;28;20037;-52
2021/12/09 06:52:39;;;;;;;27.23;7.65;;;;;;;1.76;100.00;100021.69;5073235;28;21733;-51
2021/12/09 06:55:05;;;;;;;22.23;7.63;;;;;;;1.76;100.00;100019.09;5092431;28;20047;-50
2021/12/09 06:57:31;;;;;;;29.80;8.07;;;;;;;1.74;100.00;100020.84;5084479;28;20032;-50
2021/12/09 06:59:56;;;;;;;25.52;7.45;;;;;;;1.68;100.00;100015.72;5087164;28;20039;-49
2021/12/09 07:02:21;;;;;;;23.45;8.02;;;;;;;1.42;100.00;99973.59;5071961;28;20025;-50
2021/12/09 07:04:47;;;;;;;25.17;8.05;;;;;;;1.82;100.00;100025.94;5071965;28;20105;-53
2021/12/09 07:07:13;;;;;;;29.60;8.57;;;;;;;1.83;100.00;100033.75;5075863;28;20490;-55
2021/12/09 07:09:39;;;;;;;32.33;9.35;;;;;;;1.80;100.00;100022.53;5092169;28;20085;-51
2021/12/09 07:12:05;;;;;;;26.63;8.70;;;;;;;1.81;100.00;100029.44;5074191;28;20395;-50
2021/12/09 07:14:31;;;;;;;27.27;8.05;;;;;;;1.86;100.00;100036.31;5074200;28;20032;-49
2021/12/09 07:16:56;;;;;;;30.42;8.25;;;;;;;1.86;100.00;100036.31;5091839;28;20036;-53
2021/12/09 07:19:21;;;;;;;32.60;9.00;;;;;;;1.91;100.00;100031.91;5091825;28;20085;-50
2021/12/09 07:21:47;;;;;;;28.48;9.38;;;;;;;1.92;100.00;100037.97;5091721;28;20036;-51
2021/12/09 07:24:12;;;;;;;27.50;8.60;;;;;;;1.95;100.00;100044.00;5092231;28;20119;-51
2021/12/09 07:26:37;;;;;;;29.90;9.57;;;;;;;1.95;100.00;100025.84;5091923;28;20036;-54
2021/12/09 07:29:03;;;;;;;26.77;9.27;;;;;;;1.78;100.00;99998.34;5073741;28;20478;-53
2021/12/09 07:31:29;;;;;;;23.75;8.80;;;;;;;1.80;100.00;100000.03;5091352;28;20044;-50
2021/12/09 07:33:56;;;;;;;38.65;9.10;;;;;;;2.04;100.00;100049.06;5091753;28;20046;-51
2021/12/09 07:36:22;;;;;;;23.25;8.68;;;;;;;2.07;100.00;100040.41;5092032;28;20089;-54
2021/12/09 07:38:47;;;;;;;29.95;9.35;;;;;;;2.14;100.00;100045.50;5091964;28;20036;-49
2021/12/09 07:41:14;;;;;;;29.83;9.38;;;;;;;1.81;100.00;99974.97;5073257;28;20034;-48
2021/12/09 07:43:40;;;;;;;22.92;9.02;;;;;;;1.99;100.00;99991.16;5073843;28;20085;-51
2021/12/09 07:46:05;;;;;;;24.92;8.25;;;;;;;2.34;100.00;100045.28;5087274;28;20040;-49
2021/12/09 07:48:31;;;;;;;21.65;8.60;;;;;;;2.37;100.00;100046.97;5092057;28;20059;-49
2021/12/09 07:50:56;;;;;;;26.83;8.07;;;;;;;2.41;100.00;100052.13;5077154;28;20047;-51
2021/12/09 07:53:22;;;;;;;30.95;9.07;;;;;;;2.43;100.00;100039.97;5095575;28;20391;-51
2021/12/09 07:55:51;;;;;;;25.77;9.00;;;;;;;2.34;100.00;100011.50;5095096;28;20028;-49
2021/12/09 07:58:18;;;;;;;27.90;9.70;;;;;;;2.68;100.00;100053.53;5094373;28;20032;-55
2021/12/09 08:00:43;;;;;;;24.70;9.68;;;;;;;2.76;100.00;100069.88;5092781;28;20035;-48
2021/12/09 08:03:09;;;;;;;26.45;9.13;;;;;;;2.45;100.00;100004.44;5094318;28;20085;-51
2021/12/09 08:05:37;;;;;;;26.23;10.05;;;;;;;2.51;100.00;100003.53;5076051;28;20066;-48
2021/12/09 08:08:04;;;;;;;26.20;10.40;;;;;;;2.91;100.00;100074.00;5094638;28;20020;-48
2021/12/09 08:10:29;;;;;;;35.17;10.05;;;;;;;2.89;100.00;100053.22;5076860;28;20067;-49
2021/12/09 08:12:57;;;;;;;26.38;10.18;;;;;;;3.05;100.00;100082.47;5094999;28;20063;-49
2021/12/09 08:15:22;;;;;;;22.23;9.65;;;;;;;2.97;100.00;100059.19;5077203;28;20032;-48
2021/12/09 08:18:53;;;;;;;24.27;10.07;;;;;;;2.98;100.00;100063.50;5095156;28;20028;-47
2021/12/09 08:20:42;;;;;;;26.23;9.88;;;;;;;3.19;100.00;100077.94;5076987;28;20040;-51
2021/12/09 08:23:07;;;;;;;26.40;9.82;;;;;;;3.19;100.00;100076.19;5094778;28;20126;-50
2021/12/09 08:25:33;;;;;;;24.25;10.00;;;;;;;3.30;100.00;100074.28;5075595;28;20391;-51
2021/12/09 08:27:58;;;;;;;22.08;9.88;;;;;;;3.39;100.00;100068.94;5093612;28;20459;-51
2021/12/09 08:30:25;;;;;;;25.80;10.80;;;;;;;3.48;100.00;100059.28;5093327;28;20036;-49
2021/12/09 08:32:54;;;;;;;34.53;10.80;;;;;;;3.27;100.00;100018.84;5093476;28;20047;-51
2021/12/09 08:35:20;;;;;;;21.88;9.13;;;;;;;3.51;100.00;100052.28;5093444;28;20035;-48
2021/12/09 08:37:46;;;;;;;27.00;10.85;;;;;;;3.53;100.00;100089.56;5075535;28;20119;-48
2021/12/09 08:40:12;;;;;;;27.88;10.65;;;;;;;3.48;100.00;100059.28;5093485;28;20467;-54
2021/12/09 08:42:38;;;;;;;28.15;10.90;;;;;;;3.19;100.00;100012.91;5092414;28;20039;-59
2021/12/09 08:45:06;;;;;;;23.80;9.85;;;;;;;3.53;100.00;100066.16;5091414;28;20040;-57
2021/12/09 08:47:31;;;;;;;25.65;10.27;;;;;;;3.64;100.00;100085.03;5092796;28;20036;-54
2021/12/09 08:49:57;;;;;;;31.23;11.02;;;;;;;3.40;100.00;100042.06;5074909;28;20097;-56
2021/12/09 08:52:22;;;;;;;24.17;9.90;;;;;;;3.67;100.00;100073.72;5075060;28;20042;-55
2021/12/09 08:54:47;;;;;;;28.38;10.10;;;;;;;3.33;100.00;100016.16;5092888;28;20059;-53
2021/12/09 08:57:13;;;;;;;28.45;11.02;;;;;;;3.30;100.00;100011.00;5093113;28;20062;-56
2021/12/09 08:59:38;;;;;;;24.00;10.65;;;;;;;3.47;100.00;100035.03;5074930;28;20035;-53
2021/12/09 09:02:04;;;;;;;34.42;11.02;;;;;;;3.59;100.00;100050.41;5058437;28;20044;-59
2021/12/09 09:04:30;;;;;;;27.33;11.40;;;;;;;3.86;100.00;100075.97;5074834;28;20028;-54
2021/12/09 09:06:58;;;;;;;24.02;10.82;;;;;;;3.88;100.00;100074.19;5074785;28;20119;-56
2021/12/09 09:09:26;;;;;;;24.50;10.90;;;;;;;4.04;100.00;100095.63;5092678;28;20060;-54
2021/12/09 09:11:52;;;;;;;29.75;11.02;;;;;;;3.39;100.00;99972.69;5074989;28;20036;-56
2021/12/09 09:14:17;;;;;;;23.52;10.43;;;;;;;4.12;100.00;100080.72;5074749;28;20085;-58
2021/12/09 09:16:43;;;;;;;27.23;10.57;;;;;;;4.03;100.00;100056.59;5092747;28;20039;-57
2021/12/09 09:19:10;;;;;;;26.35;11.65;;;;;;;3.82;100.00;100016.19;5092681;28;20455;-56
2021/12/09 09:21:35;;;;;;;29.65;11.07;;;;;;;4.11;100.00;100089.44;5074585;28;20273;-55
2021/12/09 09:24:03;;;;;;;31.17;12.18;;;;;;;3.81;100.00;100024.88;5092475;28;20036;-56
2021/12/09 09:26:29;;;;;;;29.80;11.35;;;;;;;3.82;100.00;100016.19;5092712;28;20069;-53
2021/12/09 09:28:54;;;;;;;24.02;10.80;;;;;;;4.27;100.00;100088.25;5092442;28;20043;-58
2021/12/09 09:31:21;;;;;;;29.35;11.85;;;;;;;4.30;100.00;100077.78;5073916;28;20052;-56
2021/12/09 09:33:46;;;;;;;30.80;11.98;;;;;;;3.90;100.00;100027.31;5074181;28;20054;-56
2021/12/09 09:36:12;;;;;;;24.60;12.63;;;;;;;4.31;100.00;100095.13;5092242;28;20111;-54
2021/12/09 09:38:38;;;;;;;29.40;13.50;;;;;;;4.35;100.00;100099.38;5074109;28;20467;-56
2021/12/09 09:41:09;;;;;;;26.40;11.98;;;;;;;4.38;100.00;100088.03;5092229;28;20036;-56
2021/12/09 09:46:30;;;;;;;26.05;13.35;;;;;;;4.25;100.00;100035.34;5092116;28;20507;-52
2021/12/09 09:48:59;;;;;;;24.73;13.48;;;;;;;4.75;100.00;100096.00;5091894;28;20024;-56
2021/12/09 09:51:26;;;;;;;24.13;12.30;;;;;;;4.55;100.00;100029.47;5091714;28;20509;-53
2021/12/09 09:53:52;;;;;;;25.08;13.00;;;;;;;4.97;100.00;100099.88;5091812;28;20028;-54
2021/12/09 09:56:22;;;;;;;27.05;12.52;;;;;;;4.85;100.00;100047.97;5091972;28;20081;-55
2021/12/09 09:58:54;;;;;;;26.42;13.18;;;;;;;5.00;100.00;100091.97;5091887;28;20063;-52
2021/12/09 10:01:20;;;;;;;21.20;11.93;;;;;;;4.61;100.00;100041.56;5091831;28;20107;-58
2021/12/09 10:03:48;;;;;;;28.00;13.23;;;;;;;4.85;100.00;100106.19;5056901;28;20299;-55
2021/12/09 10:06:18;;;;;;;22.17;11.98;;;;;;;4.50;100.00;100043.50;5073593;28;20532;-52
2021/12/09 10:08:44;;;;;;;28.73;14.18;;;;;;;4.91;100.00;100115.63;5073706;28;20063;-58
2021/12/09 10:11:09;;;;;;;24.95;13.02;;;;;;;4.96;100.00;100113.81;5091320;28;20074;-56
2021/12/09 10:13:39;;;;;;;28.00;13.55;;;;;;;5.00;100.00;100124.13;5091489;28;20032;-56
2021/12/09 10:16:19;;;;;;;25.05;13.63;;;;;;;4.99;100.00;100095.50;5091628;28;20028;-54
2021/12/09 10:18:46;;;;;;;29.02;13.50;;;;;;;4.79;100.00;100064.59;5091615;28;20063;-55
2021/12/09 10:21:28;;;;;;;25.15;14.32;;;;;;;4.76;100.00;100063.84;5073548;28;20423;-56
2021/12/09 10:23:59;;;;;;;28.90;13.80;;;;;;;4.70;100.00;100050.94;5091592;28;20036;-53
2021/12/09 10:26:26;;;;;;;23.95;13.50;;;;;;;5.02;100.00;100111.91;5091288;28;20455;-55
2021/12/09 10:29:18;;;;;;;23.70;13.52;;;;;;;5.02;100.00;100103.25;5091530;28;20343;-58
2021/12/09 10:31:51;;;;;;;31.65;14.15;;;;;;;5.06;100.00;100110.09;5089983;28;20076;-57
2021/12/09 10:34:37;;;;;;;26.38;14.20;;;;;;;4.64;100.00;100025.00;5091382;28;20032;-53
2021/12/09 10:37:24;;;;;;;26.02;13.90;;;;;;;5.15;100.00;100081.22;5073124;28;20052;-59
2021/12/09 10:39:58;;;;;;;27.92;14.45;;;;;;;4.98;100.00;100025.97;5091396;28;20107;-56
2021/12/09 10:42:43;;;;;;;29.50;14.77;;;;;;;5.37;100.00;100085.03;5091115;28;20047;-58
2021/12/09 10:45:15;;;;;;;30.45;14.20;;;;;;;5.33;100.00;100072.09;5090950;28;20459;-55
2021/12/09 10:53:00;;;;;;;30.05;18.50;;;;;;;5.09;100.00;100006.56;5091149;28;20043;-55
2021/12/09 10:55:34;;;;;;;29.50;14.65;;;;;;;5.60;100.00;100087.13;5090990;28;20082;-57
2021/12/09 10:58:09;;;;;;;28.77;15.43;;;;;;;5.46;100.00;100048.28;5073116;28;20024;-58
2021/12/09 11:00:43;;;;;;;29.40;15.43;;;;;;;5.53;100.00;100060.31;5090947;28;20040;-56
2021/12/09 11:03:42;;;;;;;31.35;14.82;;;;;;;5.64;100.00;100091.38;5072902;28;20436;-55
2021/12/09 11:06:15;;;;;;;27.85;14.50;;;;;;;5.58;100.00;100081.06;5091187;28;20292;-54
2021/12/09 11:08:45;;;;;;;24.80;14.70;;;;;;;5.60;100.00;100082.75;5090909;28;20442;-54
2021/12/09 11:11:34;;;;;;;22.27;14.98;;;;;;;5.65;100.00;100090.47;5073029;28;20330;-58
2021/12/09 11:14:14;;;;;;;25.55;15.07;;;;;;;5.71;100.00;100076.41;5090983;28;20384;-59
2021/12/09 11:16:42;;;;;;;28.75;15.57;;;;;;;5.66;100.00;100064.31;5091023;28;20042;-56
2021/12/09 11:19:10;;;;;;;28.42;16.42;;;;;;;5.74;100.00;100084.16;5091025;28;20481;-57
2021/12/09 11:21:51;;;;;;;24.05;15.70;;;;;;;5.32;100.00;100018.19;5090822;28;20044;-53
2021/12/09 11:24:19;;;;;;;24.27;15.65;;;;;;;5.62;100.00;100086.19;5094475;28;20024;-53
2021/12/09 11:26:56;;;;;;;27.13;15.63;;;;;;;5.62;100.00;100085.31;5094671;28;20128;-57